Time;durP1;ratioP1;P1;durP2;ratioP2;P2;SDS_P1;SDS_P2;PMS_P1;PMS_P2;Temp;Humidity;BMP_temperature;BMP_pressure;BME280_temperature;BME280_humidity;BME280_pressure;Samples;Min_cycle;Max_cycle;Signal;HPM_P1;HPM_P2
2022/03/25 00:01:45;;;;;;;114.05;50.67;;;8.80;96.30;;;;;;5032712;28;20124;-55
2022/03/25 00:04:17;;;;;;;99.53;48.15;;;8.80;96.50;;;;;;5034538;28;20041;-54
2022/03/25 00:06:44;;;;;;;102.18;49.42;;;8.80;96.50;;;;;;5034738;28;20500;-56
2022/03/25 00:09:10;;;;;;;99.97;47.10;;;8.70;96.60;;;;;;5034513;28;20480;-55
2022/03/25 00:11:38;;;;;;;93.68;47.83;;;8.70;96.60;;;;;;5032895;28;20455;-51
2022/03/25 00:14:05;;;;;;;97.85;46.88;;;8.70;96.60;;;;;;5036134;28;20041;-57
2022/03/25 00:16:32;;;;;;;96.93;49.92;;;8.70;96.70;;;;;;5035566;28;20539;-55
2022/03/25 00:18:59;;;;;;;99.38;48.35;;;8.70;96.80;;;;;;5028579;28;20064;-54
2022/03/25 00:21:26;;;;;;;97.00;47.50;;;8.70;96.70;;;;;;5035896;28;20052;-52
2022/03/25 00:23:53;;;;;;;107.13;51.45;;;8.70;96.80;;;;;;5036870;28;20091;-54
2022/03/25 00:26:20;;;;;;;108.72;50.90;;;8.60;96.80;;;;;;5032367;28;20053;-54
2022/03/25 00:28:46;;;;;;;104.03;52.55;;;8.70;96.90;;;;;;5027206;28;20104;-56
2022/03/25 00:31:13;;;;;;;102.43;50.42;;;8.70;96.90;;;;;;5027441;28;20064;-55
2022/03/25 00:33:42;;;;;;;104.47;49.60;;;8.60;97.00;;;;;;5026507;28;20311;-53
2022/03/25 00:36:10;;;;;;;96.35;48.45;;;8.60;97.10;;;;;;5026759;28;20052;-59
2022/03/25 00:38:37;;;;;;;105.07;52.25;;;8.60;97.20;;;;;;5030466;28;20103;-55
2022/03/25 00:41:07;;;;;;;116.78;53.90;;;8.50;97.20;;;;;;5027740;28;20049;-56
2022/03/25 00:43:34;;;;;;;96.07;49.40;;;8.50;97.30;;;;;;5027900;28;20041;-57
2022/03/25 00:46:01;;;;;;;106.32;50.90;;;8.40;97.30;;;;;;5025156;28;20060;-57
2022/03/25 00:48:28;;;;;;;98.20;49.13;;;8.40;97.40;;;;;;5026010;28;20041;-55
2022/03/25 00:50:55;;;;;;;97.82;48.95;;;8.40;97.60;;;;;;5026934;28;20049;-57
2022/03/25 00:53:23;;;;;;;111.47;51.03;;;8.40;97.60;;;;;;5029982;28;20049;-57
2022/03/25 00:55:51;;;;;;;107.35;49.88;;;8.30;97.40;;;;;;5035884;28;20344;-58
2022/03/25 00:58:19;;;;;;;99.10;46.88;;;8.30;97.50;;;;;;5029373;28;20049;-55
2022/03/25 01:00:46;;;;;;;105.65;48.90;;;8.30;97.50;;;;;;5035258;28;20041;-57
2022/03/25 01:03:14;;;;;;;104.30;48.40;;;8.20;97.50;;;;;;5028786;28;20049;-57
2022/03/25 01:05:41;;;;;;;91.40;45.70;;;8.20;97.60;;;;;;5037163;28;20049;-54
2022/03/25 01:08:09;;;;;;;92.97;44.10;;;8.10;97.80;;;;;;5027128;28;20045;-52
2022/03/25 01:10:36;;;;;;;90.55;46.13;;;8.10;97.50;;;;;;5038220;28;20510;-55
2022/03/25 01:13:04;;;;;;;84.72;43.15;;;8.10;97.70;;;;;;5036382;28;20053;-54
2022/03/25 01:15:31;;;;;;;82.68;41.95;;;8.00;97.60;;;;;;5042139;28;20080;-56
2022/03/25 01:17:58;;;;;;;92.50;40.45;;;7.90;97.80;;;;;;5029652;28;20058;-55
2022/03/25 01:20:25;;;;;;;81.90;42.83;;;7.70;98.20;;;;;;5042849;28;20614;-57
2022/03/25 01:22:53;;;;;;;82.07;40.45;;;7.50;98.30;;;;;;5045339;28;20564;-56
2022/03/25 01:25:20;;;;;;;81.15;41.22;;;7.40;98.40;;;;;;5036848;28;20115;-55
2022/03/25 01:27:47;;;;;;;81.07;40.90;;;7.50;98.30;;;;;;5045546;28;20049;-55
2022/03/25 01:30:14;;;;;;;83.32;38.70;;;7.50;98.30;;;;;;5031910;28;20124;-54
2022/03/25 01:32:41;;;;;;;84.32;40.80;;;7.40;98.30;;;;;;5044567;28;20045;-55
2022/03/25 01:35:09;;;;;;;84.53;39.22;;;7.30;98.40;;;;;;5036468;28;20069;-56
2022/03/25 01:37:36;;;;;;;83.75;38.47;;;7.30;98.30;;;;;;5044129;28;20079;-57
2022/03/25 01:40:08;;;;;;;81.53;38.63;;;7.30;98.30;;;;;;4684827;28;10000041;-56
2022/03/25 01:42:39;;;;;;;75.40;39.97;;;7.40;98.30;;;;;;5043600;28;20087;-58
2022/03/25 01:45:06;;;;;;;79.90;41.03;;;7.30;98.20;;;;;;5041995;28;20048;-54
2022/03/25 01:47:33;;;;;;;83.65;41.53;;;7.40;98.20;;;;;;5041608;28;20053;-55
2022/03/25 01:50:00;;;;;;;78.57;40.13;;;7.30;98.10;;;;;;5021829;28;20064;-56
2022/03/25 01:52:28;;;;;;;81.68;40.00;;;7.30;98.20;;;;;;5020895;28;20459;-56
2022/03/25 01:54:55;;;;;;;74.38;36.67;;;7.20;98.20;;;;;;5032940;28;20053;-57
2022/03/25 01:57:24;;;;;;;80.10;37.60;;;7.20;98.30;;;;;;5040688;28;20049;-57
2022/03/25 01:59:54;;;;;;;76.80;39.35;;;7.20;98.40;;;;;;5030103;28;20119;-56
2022/03/25 02:02:20;;;;;;;78.63;37.80;;;7.20;98.50;;;;;;5037255;28;20462;-56
2022/03/25 02:04:48;;;;;;;87.97;40.15;;;7.20;98.50;;;;;;5033517;28;20057;-56
2022/03/25 02:07:14;;;;;;;86.30;39.00;;;7.20;98.50;;;;;;5040845;28;20049;-58
2022/03/25 02:09:41;;;;;;;83.43;41.00;;;7.20;98.50;;;;;;5030271;28;20045;-56
2022/03/25 02:12:09;;;;;;;80.03;39.25;;;7.10;98.50;;;;;;5041862;28;20049;-57
2022/03/25 02:14:36;;;;;;;83.82;38.78;;;7.10;98.50;;;;;;5044771;28;20172;-57
2022/03/25 02:17:03;;;;;;;75.15;37.83;;;7.10;98.50;;;;;;5040253;28;20084;-57
2022/03/25 02:19:30;;;;;;;72.15;33.83;;;7.00;98.50;;;;;;5018201;28;20077;-55
2022/03/25 02:21:57;;;;;;;71.88;35.60;;;6.90;98.60;;;;;;5038467;28;20500;-57
2022/03/25 02:24:23;;;;;;;68.35;35.95;;;6.90;98.50;;;;;;5033129;28;20111;-56
2022/03/25 02:26:51;;;;;;;74.20;36.08;;;6.90;98.60;;;;;;5033455;28;20049;-56
2022/03/25 02:29:18;;;;;;;66.57;34.78;;;6.90;98.60;;;;;;5042859;28;20091;-56
2022/03/25 02:31:45;;;;;;;75.18;37.92;;;7.00;98.60;;;;;;5035637;28;20049;-57
2022/03/25 02:34:12;;;;;;;74.38;35.92;;;6.90;98.50;;;;;;5038486;28;20056;-56
2022/03/25 02:36:39;;;;;;;71.30;35.90;;;6.90;98.40;;;;;;5031701;28;20049;-57
2022/03/25 02:39:06;;;;;;;73.65;36.63;;;6.90;98.40;;;;;;5040568;28;20123;-57
2022/03/25 02:41:33;;;;;;;79.90;37.53;;;6.80;98.40;;;;;;5033871;28;20306;-57
2022/03/25 02:44:00;;;;;;;79.88;38.67;;;6.80;98.50;;;;;;5038931;28;20049;-56
2022/03/25 02:46:27;;;;;;;81.50;39.55;;;6.70;98.60;;;;;;5031275;28;20500;-56
2022/03/25 02:48:54;;;;;;;77.20;37.40;;;6.70;98.80;;;;;;5044885;28;20122;-56
2022/03/25 02:51:21;;;;;;;76.45;37.95;;;6.70;98.80;;;;;;5041395;28;20049;-55
2022/03/25 02:53:48;;;;;;;81.65;40.10;;;6.60;99.00;;;;;;5042211;28;20045;-56
2022/03/25 02:56:15;;;;;;;82.28;38.03;;;6.60;98.80;;;;;;5040780;28;20076;-57
2022/03/25 02:58:41;;;;;;;76.28;39.67;;;6.50;99.00;;;;;;5038856;28;20084;-56
2022/03/25 03:01:08;;;;;;;90.55;41.88;;;6.40;99.10;;;;;;5041993;28;20041;-57
2022/03/25 03:03:36;;;;;;;80.68;40.92;;;6.30;99.40;;;;;;5031628;28;20069;-55
2022/03/25 03:06:02;;;;;;;76.93;37.70;;;6.30;99.60;;;;;;5041059;28;20076;-56
2022/03/25 03:08:30;;;;;;;87.78;42.38;;;6.30;99.50;;;;;;5037795;28;20045;-54
2022/03/25 03:10:57;;;;;;;77.03;38.58;;;6.30;99.60;;;;;;5031485;28;20091;-58
2022/03/25 03:13:24;;;;;;;80.90;39.67;;;6.30;99.60;;;;;;5034019;28;20048;-53
2022/03/25 03:15:50;;;;;;;76.00;36.63;;;6.20;99.50;;;;;;5034304;28;20095;-55
2022/03/25 03:18:20;;;;;;;85.63;39.05;;;6.10;99.50;;;;;;5035250;28;20051;-55
2022/03/25 03:20:46;;;;;;;68.78;36.30;;;6.10;99.40;;;;;;5039285;28;20045;-55
2022/03/25 03:23:13;;;;;;;73.95;36.20;;;6.10;99.20;;;;;;5036132;28;20076;-51
2022/03/25 03:25:40;;;;;;;76.03;38.97;;;6.20;99.40;;;;;;5037423;28;20248;-57
2022/03/25 03:28:07;;;;;;;68.50;36.42;;;6.10;99.30;;;;;;5031075;28;20041;-53
2022/03/25 03:30:35;;;;;;;83.22;38.40;;;6.00;99.40;;;;;;5045536;28;20053;-54
2022/03/25 03:33:04;;;;;;;87.68;37.97;;;6.00;99.60;;;;;;5036975;28;20045;-57
2022/03/25 03:35:34;;;;;;;85.85;37.33;;;6.00;99.50;;;;;;5042366;28;20049;-57
2022/03/25 03:38:01;;;;;;;75.25;36.55;;;6.00;99.50;;;;;;5038274;28;20111;-56
2022/03/25 03:40:28;;;;;;;75.10;36.60;;;6.00;99.40;;;;;;5040506;28;20046;-55
2022/03/25 03:42:55;;;;;;;77.70;39.15;;;5.90;99.30;;;;;;5028620;28;20045;-55
2022/03/25 03:45:22;;;;;;;75.32;36.90;;;5.90;99.20;;;;;;5040978;28;20041;-51
2022/03/25 03:47:49;;;;;;;69.18;35.22;;;5.90;99.10;;;;;;5028076;28;20574;-55
2022/03/25 03:50:16;;;;;;;78.70;35.33;;;5.90;99.30;;;;;;5040316;28;20114;-56
2022/03/25 03:52:43;;;;;;;73.72;37.00;;;5.90;99.40;;;;;;5028833;28;20045;-52
2022/03/25 03:55:10;;;;;;;78.35;35.20;;;5.90;99.40;;;;;;5037744;28;21231;-54
2022/03/25 03:57:37;;;;;;;79.72;36.63;;;5.90;99.30;;;;;;5030910;28;20519;-52
2022/03/25 04:00:11;;;;;;;63.80;32.55;;;5.90;99.30;;;;;;5032216;28;20081;-51
2022/03/25 04:02:42;;;;;;;70.30;34.75;;;5.90;99.40;;;;;;5035511;28;20058;-56
2022/03/25 04:05:10;;;;;;;72.72;35.38;;;5.80;99.40;;;;;;5034097;28;20045;-56
2022/03/25 04:07:44;;;;;;;74.18;36.33;;;5.80;99.10;;;;;;5034502;28;20496;-57
2022/03/25 04:10:12;;;;;;;77.88;36.95;;;5.80;99.10;;;;;;5033750;28;20114;-55
2022/03/25 04:12:39;;;;;;;76.45;34.33;;;5.80;99.30;;;;;;5034235;28;20071;-56
2022/03/25 04:15:09;;;;;;;71.72;34.33;;;5.70;99.30;;;;;;5031664;28;20107;-57
2022/03/25 04:17:37;;;;;;;75.55;35.05;;;5.70;99.40;;;;;;5034697;28;20047;-54
2022/03/25 04:20:04;;;;;;;76.35;37.35;;;5.70;99.70;;;;;;5028150;28;20080;-56
2022/03/25 04:22:31;;;;;;;80.88;36.08;;;5.70;99.40;;;;;;5036229;28;20428;-51
2022/03/25 04:24:58;;;;;;;75.45;35.38;;;5.60;99.50;;;;;;5030417;28;21855;-55
2022/03/25 04:27:25;;;;;;;78.93;36.15;;;5.70;99.50;;;;;;5037106;28;20196;-55
2022/03/25 04:29:52;;;;;;;71.72;35.20;;;5.70;99.60;;;;;;5028819;28;20068;-53
2022/03/25 04:32:18;;;;;;;72.82;34.10;;;5.50;99.40;;;;;;5031232;28;20543;-55
2022/03/25 04:34:45;;;;;;;73.22;32.90;;;5.60;99.50;;;;;;5028380;28;20130;-54
2022/03/25 04:37:12;;;;;;;75.22;36.47;;;5.50;99.50;;;;;;5034181;28;20104;-50
2022/03/25 04:39:39;;;;;;;68.30;34.08;;;5.50;99.40;;;;;;5041044;28;20429;-53
2022/03/25 04:42:07;;;;;;;71.30;34.33;;;5.50;99.80;;;;;;5040447;28;20037;-54
2022/03/25 04:44:34;;;;;;;78.32;37.47;;;5.30;99.90;;;;;;5031732;28;20456;-54
2022/03/25 04:47:03;;;;;;;78.35;37.45;;;5.20;99.90;;;;;;5045310;28;20053;-56
2022/03/25 04:49:29;;;;;;;88.40;39.45;;;5.20;99.90;;;;;;5043350;28;20103;-53
2022/03/25 04:51:59;;;;;;;79.88;37.22;;;5.20;99.90;;;;;;5040513;28;20095;-55
2022/03/25 04:54:26;;;;;;;75.30;36.55;;;5.20;99.90;;;;;;5034827;28;20045;-52
2022/03/25 04:56:53;;;;;;;74.20;36.45;;;5.30;99.90;;;;;;5044474;28;20049;-53
2022/03/25 04:59:19;;;;;;;76.88;38.80;;;5.30;99.90;;;;;;5040587;28;20091;-54
2022/03/25 05:01:47;;;;;;;85.13;39.72;;;5.20;99.90;;;;;;5041225;28;20110;-55
2022/03/25 05:04:13;;;;;;;76.05;36.40;;;5.30;99.90;;;;;;5044835;28;20480;-55
2022/03/25 05:06:40;;;;;;;76.43;36.17;;;5.20;99.90;;;;;;5039819;28;20045;-55
2022/03/25 05:09:09;;;;;;;83.40;38.13;;;5.20;99.90;;;;;;5042366;28;20053;-55
2022/03/25 05:11:37;;;;;;;73.50;35.03;;;5.20;99.90;;;;;;5035545;28;20460;-56
2022/03/25 05:14:04;;;;;;;80.35;39.70;;;5.20;99.90;;;;;;5043673;28;20088;-55
2022/03/25 05:16:31;;;;;;;77.28;37.38;;;5.20;99.90;;;;;;5035559;28;20175;-56
2022/03/25 05:18:57;;;;;;;80.30;38.42;;;5.20;99.90;;;;;;5047764;28;20044;-56
2022/03/25 05:21:25;;;;;;;74.57;36.15;;;5.10;99.90;;;;;;5050137;28;20055;-57
2022/03/25 05:23:52;;;;;;;85.45;37.60;;;5.10;99.90;;;;;;5047722;28;20041;-55
2022/03/25 05:26:20;;;;;;;79.65;35.63;;;5.00;99.90;;;;;;5045509;28;20041;-54
2022/03/25 05:28:48;;;;;;;86.00;37.13;;;5.00;99.90;;;;;;5045301;28;20041;-56
2022/03/25 05:31:15;;;;;;;83.43;39.15;;;4.90;99.90;;;;;;5034230;28;20552;-59
2022/03/25 05:33:42;;;;;;;72.18;34.30;;;5.00;99.90;;;;;;5035311;28;20049;-57
2022/03/25 05:36:09;;;;;;;85.75;36.80;;;5.00;99.90;;;;;;5045253;28;20041;-54
2022/03/25 05:38:36;;;;;;;74.35;37.22;;;5.00;99.90;;;;;;5036871;28;20045;-57
2022/03/25 05:41:03;;;;;;;79.03;38.97;;;4.90;99.90;;;;;;5047296;28;20099;-56
2022/03/25 05:43:29;;;;;;;85.25;38.13;;;4.90;99.90;;;;;;5041109;28;20115;-52
2022/03/25 05:45:56;;;;;;;80.82;37.60;;;4.90;99.90;;;;;;5039179;28;20056;-55
2022/03/25 05:48:24;;;;;;;91.35;38.15;;;4.90;99.90;;;;;;5038086;28;20206;-54
2022/03/25 05:50:51;;;;;;;82.32;37.20;;;4.90;99.90;;;;;;5039491;28;20073;-57
2022/03/25 05:53:18;;;;;;;81.35;39.10;;;4.80;99.90;;;;;;5037166;28;20512;-55
2022/03/25 05:55:44;;;;;;;81.53;37.42;;;4.80;99.90;;;;;;5040201;28;20054;-54
2022/03/25 05:58:11;;;;;;;86.57;37.72;;;4.70;99.90;;;;;;5031415;28;20053;-53
2022/03/25 06:00:38;;;;;;;89.47;37.70;;;4.70;99.90;;;;;;5040810;28;20100;-56
2022/03/25 06:03:06;;;;;;;80.22;38.25;;;4.60;99.90;;;;;;5032399;28;20045;-54
2022/03/25 06:05:34;;;;;;;86.75;37.67;;;4.60;99.90;;;;;;5037325;28;20504;-56
2022/03/25 06:08:00;;;;;;;77.60;37.33;;;4.50;99.90;;;;;;5047157;28;20087;-55
2022/03/25 06:10:27;;;;;;;87.22;38.95;;;4.50;99.90;;;;;;5041809;28;20049;-60
2022/03/25 06:12:54;;;;;;;92.82;43.78;;;4.60;99.90;;;;;;5030941;28;20394;-57
2022/03/25 06:15:21;;;;;;;95.18;45.58;;;4.50;99.90;;;;;;5036618;28;20057;-57
2022/03/25 06:17:48;;;;;;;116.35;49.65;;;4.40;99.90;;;;;;5038980;28;20103;-56
2022/03/25 06:20:20;;;;;;;158.35;56.63;;;4.40;99.90;;;;;;5036879;28;20494;-56
2022/03/25 06:22:49;;;;;;;134.80;51.55;;;4.40;99.90;;;;;;5048104;28;20102;-55
2022/03/25 06:25:16;;;;;;;142.93;54.83;;;4.50;99.90;;;;;;5035928;28;20050;-52
2022/03/25 06:27:46;;;;;;;208.63;52.83;;;4.50;99.90;;;;;;5038486;28;20075;-57
2022/03/25 06:30:14;;;;;;;302.65;53.08;;;4.60;99.90;;;;;;5036020;28;20045;-55
2022/03/25 06:32:41;;;;;;;210.57;53.42;;;4.60;99.90;;;;;;5042184;28;20057;-54
2022/03/25 06:35:08;;;;;;;230.68;54.83;;;4.60;99.90;;;;;;5033401;28;20095;-54
2022/03/25 06:37:36;;;;;;;164.77;55.05;;;4.60;99.90;;;;;;5038249;28;20049;-54
2022/03/25 06:40:06;;;;;;;217.70;52.58;;;4.50;99.90;;;;;;5036143;28;20047;-50
2022/03/25 06:42:36;;;;;;;129.57;48.35;;;4.60;99.90;;;;;;5038505;28;20068;-53
2022/03/25 06:45:04;;;;;;;148.25;49.97;;;4.60;99.90;;;;;;5033667;28;20050;-55
2022/03/25 06:47:31;;;;;;;114.50;48.28;;;4.70;99.90;;;;;;5048507;28;20132;-58
2022/03/25 06:49:58;;;;;;;135.50;47.78;;;4.70;99.90;;;;;;5037721;28;20049;-56
2022/03/25 06:52:26;;;;;;;103.68;49.17;;;4.80;99.90;;;;;;5030813;28;20073;-58
2022/03/25 06:54:53;;;;;;;97.60;46.45;;;4.70;99.90;;;;;;5038777;28;20107;-56
2022/03/25 06:57:20;;;;;;;142.50;45.92;;;4.80;99.90;;;;;;5039177;28;20120;-57
2022/03/25 06:59:47;;;;;;;130.30;49.08;;;4.80;99.90;;;;;;5030121;28;20464;-56
2022/03/25 07:02:15;;;;;;;104.68;46.63;;;4.80;99.90;;;;;;5035588;28;20439;-57
2022/03/25 07:04:43;;;;;;;102.68;47.97;;;4.80;99.90;;;;;;5039486;28;20060;-56
2022/03/25 07:07:11;;;;;;;107.38;45.10;;;4.80;99.90;;;;;;5039664;28;20512;-56
2022/03/25 07:16:48;;;;;;;96.18;45.13;;;4.90;99.90;;;;;;4974737;28;20135;-55
2022/03/25 07:19:15;;;;;;;139.52;46.75;;;4.90;99.90;;;;;;4980569;28;21235;-57
2022/03/25 07:21:41;;;;;;;178.02;48.25;;;4.90;99.90;;;;;;4976713;28;20054;-56
2022/03/25 07:24:08;;;;;;;98.28;45.15;;;5.00;99.90;;;;;;4970837;28;20050;-55
2022/03/25 07:26:35;;;;;;;107.13;48.60;;;5.00;99.90;;;;;;4980838;28;20050;-56
2022/03/25 07:29:02;;;;;;;97.88;48.50;;;5.10;99.90;;;;;;4976928;28;20055;-54
2022/03/25 07:31:32;;;;;;;129.57;49.70;;;5.20;99.90;;;;;;4972064;28;20101;-54
2022/03/25 07:33:59;;;;;;;133.18;47.67;;;5.30;99.90;;;;;;4982111;28;20460;-54
2022/03/25 07:36:25;;;;;;;101.85;45.80;;;5.20;99.90;;;;;;4980256;28;20516;-54
2022/03/25 07:38:52;;;;;;;129.43;46.80;;;5.20;99.90;;;;;;4983897;28;20086;-52
2022/03/25 07:41:20;;;;;;;113.75;49.42;;;5.20;99.90;;;;;;4971341;28;20058;-57
2022/03/25 07:43:47;;;;;;;103.75;48.47;;;5.40;99.90;;;;;;4979580;28;20046;-57
2022/03/25 07:46:13;;;;;;;113.82;47.40;;;5.40;99.90;;;;;;4985735;28;20089;-56
2022/03/25 07:48:40;;;;;;;105.50;49.42;;;5.50;99.90;;;;;;4985064;28;20133;-58
2022/03/25 07:51:08;;;;;;;96.07;47.13;;;5.60;99.90;;;;;;4974836;28;20050;-58
2022/03/25 07:53:35;;;;;;;97.63;46.63;;;5.70;99.90;;;;;;4979523;28;20072;-56
2022/03/25 07:56:02;;;;;;;91.15;47.17;;;5.80;99.90;;;;;;4985185;28;20217;-53
2022/03/25 07:58:28;;;;;;;89.80;47.88;;;5.80;99.90;;;;;;4978996;28;20080;-56
2022/03/25 08:00:55;;;;;;;95.00;50.03;;;6.00;99.90;;;;;;4977184;28;20050;-57
2022/03/25 08:03:22;;;;;;;92.90;48.20;;;5.90;99.90;;;;;;4975627;28;20046;-56
2022/03/25 08:05:50;;;;;;;97.95;48.58;;;6.00;99.90;;;;;;4968692;28;20054;-57
2022/03/25 08:08:20;;;;;;;100.13;48.95;;;6.10;99.90;;;;;;4978301;28;20053;-58
2022/03/25 08:10:48;;;;;;;105.22;48.80;;;6.10;99.90;;;;;;4986936;28;20061;-56
2022/03/25 08:13:15;;;;;;;101.38;50.42;;;6.20;99.90;;;;;;4976632;28;20059;-57
2022/03/25 08:15:42;;;;;;;102.75;51.65;;;6.40;99.90;;;;;;4968995;28;20128;-57
2022/03/25 08:18:13;;;;;;;103.38;51.45;;;6.50;99.90;;;;;;4972355;28;20416;-56
2022/03/25 08:20:41;;;;;;;107.50;55.38;;;6.70;99.90;;;;;;4970053;28;20054;-56
2022/03/25 08:27:48;;;;;;;107.00;56.13;;;6.80;99.90;;;;;;4978747;28;20046;-57
2022/03/25 08:28:49;;;;;;;105.10;52.28;;;7.10;99.90;;;;;;4980183;28;20121;-58
2022/03/25 08:31:35;;;;;;;108.20;57.97;;;7.20;99.90;;;;;;4983397;28;20054;-57
2022/03/25 08:34:03;;;;;;;111.38;57.20;;;7.40;99.90;;;;;;4976913;28;20054;-56
2022/03/25 08:36:30;;;;;;;113.65;58.33;;;7.60;99.90;;;;;;4981664;28;20046;-55
2022/03/25 08:38:57;;;;;;;108.25;57.70;;;7.70;99.90;;;;;;4972100;28;20058;-57
2022/03/25 08:41:24;;;;;;;117.10;60.40;;;7.80;99.90;;;;;;4975772;28;20047;-54
2022/03/25 08:43:52;;;;;;;126.28;62.53;;;7.90;99.90;;;;;;4976531;28;20085;-55
2022/03/25 08:46:19;;;;;;;129.00;61.80;;;8.00;99.90;;;;;;4985051;28;20567;-54
2022/03/25 08:48:46;;;;;;;127.13;61.40;;;8.10;99.90;;;;;;4984913;28;20502;-56
2022/03/25 08:51:13;;;;;;;121.45;61.95;;;8.30;99.90;;;;;;4985521;28;20089;-57
2022/03/25 08:53:41;;;;;;;129.27;66.53;;;8.40;99.90;;;;;;4975566;28;20046;-52
2022/03/25 08:56:08;;;;;;;126.25;62.60;;;8.50;99.90;;;;;;4974147;28;20046;-56
2022/03/25 08:58:35;;;;;;;128.35;65.00;;;8.70;99.90;;;;;;4970858;28;20109;-55
2022/03/25 09:01:02;;;;;;;129.20;66.28;;;8.90;99.90;;;;;;4966871;28;20057;-54
2022/03/25 09:03:29;;;;;;;131.38;66.80;;;9.00;99.90;;;;;;4970850;28;20547;-57
2022/03/25 09:05:56;;;;;;;130.13;64.55;;;9.10;99.90;;;;;;4982722;28;20054;-57
2022/03/25 09:08:23;;;;;;;132.75;69.10;;;9.30;99.90;;;;;;4979731;28;20054;-57
2022/03/25 09:10:50;;;;;;;127.03;67.25;;;9.40;99.90;;;;;;4971175;28;20046;-54
2022/03/25 09:13:17;;;;;;;129.68;63.38;;;9.50;99.90;;;;;;4984235;28;20054;-55
2022/03/25 09:15:44;;;;;;;118.03;63.40;;;9.60;99.90;;;;;;4979565;28;20057;-57
2022/03/25 09:18:12;;;;;;;127.70;60.92;;;9.70;99.90;;;;;;4975546;28;20501;-53
2022/03/25 09:20:39;;;;;;;126.90;64.72;;;9.90;99.90;;;;;;4974186;28;20175;-55
2022/03/25 09:23:06;;;;;;;116.32;61.17;;;10.30;99.90;;;;;;4985564;28;20081;-58
2022/03/25 09:25:33;;;;;;;111.65;57.17;;;10.70;99.90;;;;;;4981420;28;20497;-58
2022/03/25 09:28:00;;;;;;;110.45;53.58;;;11.10;99.80;;;;;;4953799;28;20061;-58
2022/03/25 09:30:27;;;;;;;103.57;52.45;;;11.40;99.20;;;;;;4982316;28;20097;-56
2022/03/25 09:33:03;;;;;;;100.82;50.90;;;11.70;98.30;;;;;;4990907;28;20069;-58
2022/03/25 09:35:37;;;;;;;100.68;52.13;;;12.00;98.20;;;;;;4978104;28;20209;-59
2022/03/25 09:38:04;;;;;;;114.10;55.45;;;12.30;97.80;;;;;;4968549;28;20500;-58
2022/03/25 09:40:31;;;;;;;101.75;53.45;;;12.50;97.40;;;;;;4987460;28;20050;-57
2022/03/25 09:42:58;;;;;;;101.15;51.95;;;12.70;96.70;;;;;;4981664;28;20097;-57
2022/03/25 09:45:25;;;;;;;93.10;49.50;;;12.80;96.70;;;;;;4974372;28;20062;-57
2022/03/25 09:47:54;;;;;;;97.07;49.13;;;12.80;95.80;;;;;;4970578;28;20070;-56
2022/03/25 09:50:23;;;;;;;89.80;48.63;;;12.90;96.30;;;;;;4972231;28;20077;-58
2022/03/25 09:52:50;;;;;;;94.25;49.80;;;12.90;95.50;;;;;;4971871;28;20038;-57
2022/03/25 09:55:37;;;;;;;86.30;45.53;;;12.70;95.70;;;;;;4973707;28;20061;-56
2022/03/25 09:58:04;;;;;;;84.47;43.22;;;12.50;96.00;;;;;;4971530;28;20081;-56
2022/03/25 10:00:31;;;;;;;93.63;45.65;;;12.50;96.30;;;;;;4975629;28;20062;-59
2022/03/25 10:02:59;;;;;;;89.45;48.00;;;12.40;96.30;;;;;;4972604;28;20088;-55
2022/03/25 10:05:26;;;;;;;90.03;46.17;;;12.40;96.20;;;;;;4972424;28;20130;-55
2022/03/25 10:07:56;;;;;;;90.28;46.92;;;12.50;96.20;;;;;;4977624;28;20133;-57
2022/03/25 10:10:30;;;;;;;98.97;47.85;;;12.50;96.00;;;;;;4987812;28;20046;-55
2022/03/25 10:13:04;;;;;;;81.15;44.60;;;12.50;95.70;;;;;;4982847;28;20314;-56
2022/03/25 10:15:38;;;;;;;80.20;44.70;;;12.40;96.10;;;;;;4988689;28;20506;-55
2022/03/25 10:18:09;;;;;;;86.55;46.80;;;12.50;96.00;;;;;;4966588;28;20043;-57
2022/03/25 10:20:40;;;;;;;85.88;44.78;;;12.50;95.90;;;;;;4980010;28;20045;-58
2022/03/25 10:23:19;;;;;;;88.35;42.97;;;12.50;95.60;;;;;;4976986;28;20042;-57
2022/03/25 10:25:50;;;;;;;90.05;47.55;;;12.50;95.60;;;;;;4988434;28;20089;-56
2022/03/25 10:28:32;;;;;;;89.82;46.00;;;12.60;95.80;;;;;;4978826;28;20117;-55
2022/03/25 10:31:01;;;;;;;90.75;47.53;;;12.60;95.40;;;;;;4964139;28;20120;-57
2022/03/25 10:33:36;;;;;;;87.75;45.53;;;12.70;95.50;;;;;;4984269;28;20129;-57
2022/03/25 10:36:08;;;;;;;87.93;44.47;;;12.70;95.00;;;;;;4972625;28;20514;-54
2022/03/25 10:38:48;;;;;;;90.95;46.38;;;12.70;95.30;;;;;;4976186;28;20312;-55
2022/03/25 10:41:19;;;;;;;100.15;46.38;;;12.80;95.50;;;;;;4988310;28;20109;-58
2022/03/25 10:44:03;;;;;;;94.00;42.92;;;12.90;95.70;;;;;;4972558;28;20101;-57
2022/03/25 10:46:33;;;;;;;91.67;41.77;;;13.00;94.80;;;;;;4973667;28;20062;-57
2022/03/25 10:49:01;;;;;;;77.65;40.35;;;13.00;95.00;;;;;;4978786;28;20117;-56
2022/03/25 10:51:28;;;;;;;88.18;41.58;;;13.10;94.90;;;;;;4988189;28;20091;-55
2022/03/25 10:54:00;;;;;;;82.05;39.50;;;13.20;94.90;;;;;;4983762;28;20042;-57
2022/03/25 10:56:27;;;;;;;79.03;36.17;;;13.30;94.20;;;;;;4966494;28;20074;-57
2022/03/25 10:58:55;;;;;;;64.57;34.65;;;13.40;94.20;;;;;;4976001;28;20050;-57
2022/03/25 11:01:22;;;;;;;81.28;35.65;;;13.40;94.20;;;;;;4984231;28;20046;-56
2022/03/25 11:03:50;;;;;;;82.38;40.22;;;13.50;94.10;;;;;;4981367;28;20154;-57
2022/03/25 11:06:18;;;;;;;82.13;39.35;;;13.60;93.90;;;;;;4982213;28;20082;-58
2022/03/25 11:08:46;;;;;;;80.05;37.83;;;13.70;93.30;;;;;;4984292;28;20046;-60
2022/03/25 11:11:15;;;;;;;78.07;37.03;;;13.70;93.50;;;;;;4977954;28;20054;-56
2022/03/25 11:13:44;;;;;;;69.03;35.40;;;13.80;93.50;;;;;;4973138;28;20069;-58
2022/03/25 11:16:12;;;;;;;72.78;36.10;;;13.80;93.20;;;;;;4980010;28;20142;-59
2022/03/25 11:18:39;;;;;;;74.68;35.80;;;13.90;93.20;;;;;;4971066;28;20560;-57
2022/03/25 11:21:06;;;;;;;71.28;34.42;;;14.00;92.80;;;;;;4954197;28;20477;-57
2022/03/25 11:23:48;;;;;;;75.30;33.63;;;14.00;92.90;;;;;;4987185;28;20042;-56
2022/03/25 11:26:18;;;;;;;78.25;32.78;;;14.00;92.10;;;;;;4957967;28;20046;-57
2022/03/25 11:28:45;;;;;;;60.75;32.58;;;14.10;92.80;;;;;;4971410;28;20082;-56
2022/03/25 11:31:12;;;;;;;77.07;32.72;;;14.20;92.30;;;;;;4986520;28;20046;-57
2022/03/25 11:34:05;;;;;;;64.93;31.83;;;14.20;91.80;;;;;;4988420;28;20109;-56
2022/03/25 11:36:32;;;;;;;65.40;31.92;;;14.30;90.60;;;;;;4984292;28;20069;-53
2022/03/25 11:39:24;;;;;;;62.10;31.58;;;14.40;91.90;;;;;;4971688;28;20058;-55
2022/03/25 11:41:53;;;;;;;62.15;29.83;;;14.40;90.30;;;;;;4971897;28;20088;-57
2022/03/25 11:44:23;;;;;;;63.78;29.98;;;14.50;90.20;;;;;;4985247;28;20042;-57
2022/03/25 11:46:59;;;;;;;63.30;28.38;;;14.60;91.00;;;;;;4970725;28;20501;-58
2022/03/25 11:49:30;;;;;;;59.13;27.67;;;14.60;88.90;;;;;;4977367;28;20043;-58
2022/03/25 11:52:18;;;;;;;56.92;28.92;;;14.70;90.00;;;;;;4991026;28;20046;-57
2022/03/25 11:54:45;;;;;;;56.85;27.65;;;14.80;90.60;;;;;;4965205;28;20449;-57
2022/03/25 11:57:28;;;;;;;51.90;26.95;;;14.80;90.70;;;;;;4977989;28;20520;-58
2022/03/25 11:59:59;;;;;;;58.95;27.08;;;14.90;88.90;;;;;;4968475;28;20050;-57
2022/03/25 12:02:37;;;;;;;54.72;28.92;;;15.00;89.30;;;;;;4970478;28;20073;-58
2022/03/25 12:05:24;;;;;;;69.00;29.50;;;15.00;89.00;;;;;;4985106;28;20046;-58
2022/03/25 12:08:22;;;;;;;55.75;29.35;;;15.10;90.00;;;;;;4986586;28;20465;-57
2022/03/25 12:10:50;;;;;;;68.18;28.65;;;15.20;86.20;;;;;;4968237;28;20181;-57
2022/03/25 12:13:17;;;;;;;62.65;29.10;;;15.20;88.00;;;;;;4978356;28;20271;-59
2022/03/25 12:15:53;;;;;;;61.10;27.95;;;15.30;88.00;;;;;;4974380;28;20058;-56
2022/03/25 12:18:46;;;;;;;72.55;29.58;;;15.30;85.80;;;;;;4970276;28;20042;-57
2022/03/25 12:21:24;;;;;;;54.65;28.25;;;15.40;84.10;;;;;;4975897;28;20053;-55
2022/03/25 12:24:01;;;;;;;57.30;31.17;;;15.40;85.30;;;;;;4977226;28;20074;-58
2022/03/25 12:26:32;;;;;;;57.15;25.50;;;15.50;87.60;;;;;;4978335;28;20071;-58
2022/03/25 12:28:59;;;;;;;58.45;27.25;;;15.50;85.90;;;;;;4974974;28;20501;-57
2022/03/25 12:31:26;;;;;;;57.65;27.30;;;15.50;87.40;;;;;;4974306;28;20058;-56
2022/03/25 12:33:57;;;;;;;59.15;27.92;;;15.60;87.70;;;;;;4970858;28;20074;-58
2022/03/25 12:36:25;;;;;;;70.50;29.50;;;15.70;86.50;;;;;;4980614;28;20091;-59
2022/03/25 12:38:55;;;;;;;66.07;30.13;;;15.70;86.80;;;;;;4970298;28;20484;-60
2022/03/25 12:41:27;;;;;;;61.42;28.17;;;15.70;85.70;;;;;;4976658;28;20042;-58
2022/03/25 12:44:13;;;;;;;50.72;27.13;;;15.80;85.80;;;;;;4969185;28;20351;-58
2022/03/25 12:46:40;;;;;;;58.42;27.83;;;15.80;87.10;;;;;;4976184;28;20035;-57
2022/03/25 12:49:08;;;;;;;50.92;25.42;;;15.80;85.50;;;;;;4980074;28;20047;-58